sensor_id;sensor_type;location;lat;lon;timestamp;pressure;altitude;pressure_sealevel;temperature;humidity
28606;BME280;46498;49.968;7.754;2023-05-16T00:00:06;-18607.00;;;10.32;100.00
28606;BME280;46498;49.968;7.754;2023-05-16T00:05:08;-18607.00;;;10.32;100.00
28606;BME280;46498;49.968;7.754;2023-05-16T00:10:15;-18607.00;;;10.34;100.00
28606;BME280;46498;49.968;7.754;2023-05-16T00:15:17;-18607.00;;;10.33;100.00
28606;BME280;46498;49.968;7.754;2023-05-16T00:20:19;-18605.00;;;10.26;100.00
28606;BME280;46498;49.968;7.754;2023-05-16T00:25:23;-18604.00;;;10.25;100.00
28606;BME280;46498;49.968;7.754;2023-05-16T00:30:23;-18601.00;;;10.14;100.00
28606;BME280;46498;49.968;7.754;2023-05-16T00:35:25;-18598.00;;;10.06;100.00
28606;BME280;46498;49.968;7.754;2023-05-16T00:40:26;-18597.00;;;10.03;100.00
28606;BME280;46498;49.968;7.754;2023-05-16T00:45:28;-18595.00;;;9.96;100.00
28606;BME280;46498;49.968;7.754;2023-05-16T00:50:29;-18592.00;;;9.87;100.00
28606;BME280;46498;49.968;7.754;2023-05-16T00:55:30;-18591.00;;;9.84;100.00
28606;BME280;46498;49.968;7.754;2023-05-16T01:00:32;-18593.00;;;9.90;100.00
28606;BME280;46498;49.968;7.754;2023-05-16T01:05:33;-18591.00;;;9.83;100.00
28606;BME280;46498;49.968;7.754;2023-05-16T01:10:40;-18591.00;;;9.83;100.00
28606;BME280;46498;49.968;7.754;2023-05-16T01:15:53;-18588.00;;;9.74;100.00
28606;BME280;46498;49.968;7.754;2023-05-16T01:21:02;-18586.00;;;9.66;100.00
28606;BME280;46498;49.968;7.754;2023-05-16T01:26:18;-18584.00;;;9.63;100.00
28606;BME280;46498;49.968;7.754;2023-05-16T01:31:20;-18581.00;;;9.53;100.00
28606;BME280;46498;49.968;7.754;2023-05-16T01:36:31;-18579.00;;;9.45;100.00
28606;BME280;46498;49.968;7.754;2023-05-16T01:41:55;-18576.00;;;9.36;100.00
28606;BME280;46498;49.968;7.754;2023-05-16T01:47:01;-18579.00;;;9.44;100.00
28606;BME280;46498;49.968;7.754;2023-05-16T01:52:16;-18578.00;;;9.43;100.00
28606;BME280;46498;49.968;7.754;2023-05-16T01:57:22;-18575.00;;;9.33;100.00
28606;BME280;46498;49.968;7.754;2023-05-16T02:02:24;-18576.00;;;9.37;100.00
28606;BME280;46498;49.968;7.754;2023-05-16T02:07:25;-18572.00;;;9.25;100.00
28606;BME280;46498;49.968;7.754;2023-05-16T02:12:26;-18573.00;;;9.27;100.00
28606;BME280;46498;49.968;7.754;2023-05-16T02:17:27;-18576.00;;;9.36;100.00
28606;BME280;46498;49.968;7.754;2023-05-16T02:22:28;-18577.00;;;9.38;100.00
28606;BME280;46498;49.968;7.754;2023-05-16T02:27:29;-18573.00;;;9.28;100.00
28606;BME280;46498;49.968;7.754;2023-05-16T02:32:31;-18575.00;;;9.34;100.00
28606;BME280;46498;49.968;7.754;2023-05-16T02:37:32;-18574.00;;;9.30;100.00
28606;BME280;46498;49.968;7.754;2023-05-16T02:42:33;-18572.00;;;9.22;100.00
28606;BME280;46498;49.968;7.754;2023-05-16T02:47:34;-18570.00;;;9.16;100.00
28606;BME280;46498;49.968;7.754;2023-05-16T02:52:35;-18570.00;;;9.16;100.00
28606;BME280;46498;49.968;7.754;2023-05-16T02:57:36;-18570.00;;;9.18;100.00
28606;BME280;46498;49.968;7.754;2023-05-16T03:02:37;-18570.00;;;9.17;100.00
28606;BME280;46498;49.968;7.754;2023-05-16T03:07:41;-18567.00;;;9.07;100.00
28606;BME280;46498;49.968;7.754;2023-05-16T03:12:41;-18566.00;;;9.03;100.00
28606;BME280;46498;49.968;7.754;2023-05-16T03:17:42;-18565.00;;;9.01;100.00
28606;BME280;46498;49.968;7.754;2023-05-16T03:22:43;-18567.00;;;9.08;100.00
28606;BME280;46498;49.968;7.754;2023-05-16T03:27:44;-18566.00;;;9.04;100.00
28606;BME280;46498;49.968;7.754;2023-05-16T03:32:45;-18566.00;;;9.06;100.00
28606;BME280;46498;49.968;7.754;2023-05-16T03:37:46;-18564.00;;;8.98;100.00
28606;BME280;46498;49.968;7.754;2023-05-16T03:42:47;-18566.00;;;9.04;100.00
28606;BME280;46498;49.968;7.754;2023-05-16T03:47:48;-18565.00;;;9.01;100.00
28606;BME280;46498;49.968;7.754;2023-05-16T03:52:49;-18563.00;;;8.96;100.00
28606;BME280;46498;49.968;7.754;2023-05-16T03:57:50;-18562.00;;;8.93;100.00
28606;BME280;46498;49.968;7.754;2023-05-16T04:02:52;-18564.00;;;9.00;100.00
28606;BME280;46498;49.968;7.754;2023-05-16T04:07:53;-18563.00;;;8.96;100.00
28606;BME280;46498;49.968;7.754;2023-05-16T04:12:54;-18561.00;;;8.88;100.00
28606;BME280;46498;49.968;7.754;2023-05-16T04:17:54;-18562.00;;;8.91;100.00
28606;BME280;46498;49.968;7.754;2023-05-16T04:22:56;-18562.00;;;8.93;100.00
28606;BME280;46498;49.968;7.754;2023-05-16T04:27:57;-18566.00;;;9.03;100.00
28606;BME280;46498;49.968;7.754;2023-05-16T04:32:58;-18565.00;;;9.02;100.00
28606;BME280;46498;49.968;7.754;2023-05-16T04:37:59;-18565.00;;;9.02;100.00
28606;BME280;46498;49.968;7.754;2023-05-16T04:43:00;-18566.00;;;9.05;100.00
28606;BME280;46498;49.968;7.754;2023-05-16T04:48:01;-18566.00;;;9.03;100.00
28606;BME280;46498;49.968;7.754;2023-05-16T04:53:02;-18565.00;;;9.02;100.00
28606;BME280;46498;49.968;7.754;2023-05-16T04:58:03;-18566.00;;;9.04;100.00
28606;BME280;46498;49.968;7.754;2023-05-16T05:03:04;-18565.00;;;9.02;100.00
28606;BME280;46498;49.968;7.754;2023-05-16T05:08:05;-18563.00;;;8.95;100.00
28606;BME280;46498;49.968;7.754;2023-05-16T05:13:07;-18560.00;;;8.86;100.00
28606;BME280;46498;49.968;7.754;2023-05-16T05:18:07;-18561.00;;;8.91;100.00
28606;BME280;46498;49.968;7.754;2023-05-16T05:23:09;-18562.00;;;8.91;100.00
28606;BME280;46498;49.968;7.754;2023-05-16T05:28:10;-18560.00;;;8.87;100.00
28606;BME280;46498;49.968;7.754;2023-05-16T05:33:14;-18558.00;;;8.79;100.00
28606;BME280;46498;49.968;7.754;2023-05-16T05:38:16;-18557.00;;;8.77;100.00
28606;BME280;46498;49.968;7.754;2023-05-16T05:43:17;-18557.00;;;8.76;100.00
28606;BME280;46498;49.968;7.754;2023-05-16T05:48:18;-18550.00;;;8.55;100.00
28606;BME280;46498;49.968;7.754;2023-05-16T05:53:18;-18553.00;;;8.64;100.00
28606;BME280;46498;49.968;7.754;2023-05-16T05:58:20;-18554.00;;;8.66;100.00
28606;BME280;46498;49.968;7.754;2023-05-16T06:03:21;-18554.00;;;8.67;100.00
28606;BME280;46498;49.968;7.754;2023-05-16T06:08:22;-18554.00;;;8.68;100.00
28606;BME280;46498;49.968;7.754;2023-05-16T06:13:23;-18557.00;;;8.77;100.00
28606;BME280;46498;49.968;7.754;2023-05-16T06:18:24;-18555.00;;;8.71;100.00
28606;BME280;46498;49.968;7.754;2023-05-16T06:23:25;-18555.00;;;8.70;100.00
28606;BME280;46498;49.968;7.754;2023-05-16T06:28:26;-18552.00;;;8.61;100.00
28606;BME280;46498;49.968;7.754;2023-05-16T06:33:27;-18551.00;;;8.58;100.00
28606;BME280;46498;49.968;7.754;2023-05-16T06:38:28;-18554.00;;;8.66;100.00
28606;BME280;46498;49.968;7.754;2023-05-16T06:43:29;-18553.00;;;8.64;100.00
28606;BME280;46498;49.968;7.754;2023-05-16T06:48:30;-18556.00;;;8.73;100.00
28606;BME280;46498;49.968;7.754;2023-05-16T06:53:31;-18551.00;;;8.58;100.00
28606;BME280;46498;49.968;7.754;2023-05-16T06:58:32;-18554.00;;;8.67;100.00
28606;BME280;46498;49.968;7.754;2023-05-16T07:03:33;-18553.00;;;8.63;100.00
28606;BME280;46498;49.968;7.754;2023-05-16T07:08:34;-18555.00;;;8.69;100.00
28606;BME280;46498;49.968;7.754;2023-05-16T07:13:36;-18548.00;;;8.50;100.00
28606;BME280;46498;49.968;7.754;2023-05-16T07:18:37;-18544.00;;;8.37;100.00
28606;BME280;46498;49.968;7.754;2023-05-16T07:23:38;-18544.00;;;8.37;100.00
28606;BME280;46498;49.968;7.754;2023-05-16T07:28:40;-18545.00;;;8.38;100.00
28606;BME280;46498;49.968;7.754;2023-05-16T07:33:44;-18539.00;;;8.20;100.00
28606;BME280;46498;49.968;7.754;2023-05-16T07:38:46;-18534.00;;;8.04;100.00
28606;BME280;46498;49.968;7.754;2023-05-16T07:43:47;-18533.00;;;8.03;100.00
28606;BME280;46498;49.968;7.754;2023-05-16T07:48:48;-18538.00;;;8.18;100.00
28606;BME280;46498;49.968;7.754;2023-05-16T07:53:49;-18542.00;;;8.30;100.00
28606;BME280;46498;49.968;7.754;2023-05-16T07:58:51;-18542.00;;;8.31;100.00
28606;BME280;46498;49.968;7.754;2023-05-16T08:03:53;-18543.00;;;8.32;100.00
28606;BME280;46498;49.968;7.754;2023-05-16T08:08:54;-18543.00;;;8.32;100.00
28606;BME280;46498;49.968;7.754;2023-05-16T08:13:55;-18545.00;;;8.38;100.00
28606;BME280;46498;49.968;7.754;2023-05-16T08:18:56;-18548.00;;;8.47;100.00
28606;BME280;46498;49.968;7.754;2023-05-16T08:23:57;-18555.00;;;8.70;100.00
28606;BME280;46498;49.968;7.754;2023-05-16T08:28:59;-18559.00;;;8.83;100.00
28606;BME280;46498;49.968;7.754;2023-05-16T08:33:59;-18570.00;;;9.17;100.00
28606;BME280;46498;49.968;7.754;2023-05-16T08:39:01;-18564.00;;;8.99;100.00
28606;BME280;46498;49.968;7.754;2023-05-16T08:44:03;-18559.00;;;8.83;100.00
28606;BME280;46498;49.968;7.754;2023-05-16T08:49:04;-18554.00;;;8.66;100.00
28606;BME280;46498;49.968;7.754;2023-05-16T08:54:09;-18550.00;;;8.54;100.00
28606;BME280;46498;49.968;7.754;2023-05-16T08:59:11;-18544.00;;;8.35;100.00
28606;BME280;46498;49.968;7.754;2023-05-16T09:04:13;-18536.00;;;8.10;100.00
28606;BME280;46498;49.968;7.754;2023-05-16T09:09:15;-18537.00;;;8.13;100.00
28606;BME280;46498;49.968;7.754;2023-05-16T09:14:16;-18534.00;;;8.03;100.00
28606;BME280;46498;49.968;7.754;2023-05-16T09:19:17;-18524.00;;;7.72;100.00
28606;BME280;46498;49.968;7.754;2023-05-16T09:24:24;-18521.00;;;7.63;100.00
28606;BME280;46498;49.968;7.754;2023-05-16T09:29:26;-18518.00;;;7.54;100.00
28606;BME280;46498;49.968;7.754;2023-05-16T09:34:27;-18518.00;;;7.53;100.00
28606;BME280;46498;49.968;7.754;2023-05-16T09:39:28;-18518.00;;;7.53;100.00
28606;BME280;46498;49.968;7.754;2023-05-16T09:44:30;-18515.00;;;7.46;100.00
28606;BME280;46498;49.968;7.754;2023-05-16T09:49:31;-18520.00;;;7.59;100.00
28606;BME280;46498;49.968;7.754;2023-05-16T09:54:33;-18526.00;;;7.80;100.00
28606;BME280;46498;49.968;7.754;2023-05-16T09:59:38;-18526.00;;;7.80;100.00
28606;BME280;46498;49.968;7.754;2023-05-16T10:04:39;-18533.00;;;8.02;100.00
28606;BME280;46498;49.968;7.754;2023-05-16T10:09:42;-18537.00;;;8.12;99.80
28606;BME280;46498;49.968;7.754;2023-05-16T10:14:44;-18539.00;;;8.21;98.91
28606;BME280;46498;49.968;7.754;2023-05-16T10:19:47;-18545.00;;;8.38;94.67
28606;BME280;46498;49.968;7.754;2023-05-16T10:24:59;-18554.00;;;8.68;96.78
28606;BME280;46498;49.968;7.754;2023-05-16T10:30:05;-18561.00;;;8.88;95.14
28606;BME280;46498;49.968;7.754;2023-05-16T10:35:07;-18577.00;;;9.40;91.23
28606;BME280;46498;49.968;7.754;2023-05-16T10:40:09;-18598.00;;;10.04;88.20
28606;BME280;46498;49.968;7.754;2023-05-16T10:45:19;-18617.00;;;10.65;83.43
28606;BME280;46498;49.968;7.754;2023-05-16T10:50:38;-18611.00;;;10.47;77.12
28606;BME280;46498;49.968;7.754;2023-05-16T10:55:43;-18614.00;;;10.55;79.50
28606;BME280;46498;49.968;7.754;2023-05-16T11:00:46;-18625.00;;;10.89;73.95
28606;BME280;46498;49.968;7.754;2023-05-16T11:05:51;-18640.00;;;11.38;73.89
28606;BME280;46498;49.968;7.754;2023-05-16T11:12:41;-18637.00;;;11.28;70.91
28606;BME280;46498;49.968;7.754;2023-05-16T11:17:43;-18630.00;;;11.07;64.87
28606;BME280;46498;49.968;7.754;2023-05-16T11:22:46;-18646.00;;;11.56;60.91
28606;BME280;46498;49.968;7.754;2023-05-16T11:27:47;-18681.00;;;12.65;63.79
28606;BME280;46498;49.968;7.754;2023-05-16T11:32:49;-18680.00;;;12.63;55.09
28606;BME280;46498;49.968;7.754;2023-05-16T11:37:51;-18708.00;;;13.50;49.30
28606;BME280;46498;49.968;7.754;2023-05-16T11:42:52;-18706.00;;;13.43;48.97
28606;BME280;46498;49.968;7.754;2023-05-16T11:47:53;-18716.00;;;13.75;51.88
28606;BME280;46498;49.968;7.754;2023-05-16T11:52:54;-18717.00;;;13.78;50.02
28606;BME280;46498;49.968;7.754;2023-05-16T11:57:57;-18714.00;;;13.69;51.09
28606;BME280;46498;49.968;7.754;2023-05-16T12:03:02;-18713.00;;;13.65;50.34
28606;BME280;46498;49.968;7.754;2023-05-16T12:08:04;-18725.00;;;14.03;47.78
28606;BME280;46498;49.968;7.754;2023-05-16T12:13:06;-18720.00;;;13.88;47.24
28606;BME280;46498;49.968;7.754;2023-05-16T12:18:08;-18711.00;;;13.61;50.06
28606;BME280;46498;49.968;7.754;2023-05-16T12:23:11;-18728.00;;;14.12;48.46
28606;BME280;46498;49.968;7.754;2023-05-16T12:28:13;-18717.00;;;13.80;48.78
28606;BME280;46498;49.968;7.754;2023-05-16T12:33:15;-18702.00;;;13.31;48.36
28606;BME280;46498;49.968;7.754;2023-05-16T12:38:18;-18686.00;;;12.81;48.49
28606;BME280;46498;49.968;7.754;2023-05-16T12:43:20;-18696.00;;;13.14;49.78
28606;BME280;46498;49.968;7.754;2023-05-16T12:48:23;-18687.00;;;12.86;47.79
28606;BME280;46498;49.968;7.754;2023-05-16T12:53:24;-18706.00;;;13.45;50.49
28606;BME280;46498;49.968;7.754;2023-05-16T12:58:29;-18711.00;;;13.61;47.74
28606;BME280;46498;49.968;7.754;2023-05-16T13:03:31;-18710.00;;;13.56;44.88
28606;BME280;46498;49.968;7.754;2023-05-16T13:08:36;-18708.00;;;13.50;47.93
28606;BME280;46498;49.968;7.754;2023-05-16T13:13:38;-18706.00;;;13.43;46.63
28606;BME280;46498;49.968;7.754;2023-05-16T13:18:39;-18713.00;;;13.66;45.61
28606;BME280;46498;49.968;7.754;2023-05-16T13:23:40;-18704.00;;;13.37;47.26
28606;BME280;46498;49.968;7.754;2023-05-16T13:28:40;-18731.00;;;14.22;46.59
28606;BME280;46498;49.968;7.754;2023-05-16T13:33:42;-18746.00;;;14.71;43.72
28606;BME280;46498;49.968;7.754;2023-05-16T13:38:42;-18757.00;;;15.03;41.88
28606;BME280;46498;49.968;7.754;2023-05-16T13:43:44;-18739.00;;;14.48;43.81
28606;BME280;46498;49.968;7.754;2023-05-16T13:48:44;-18738.00;;;14.46;44.16
28606;BME280;46498;49.968;7.754;2023-05-16T13:53:45;-18750.00;;;14.83;42.43
28606;BME280;46498;49.968;7.754;2023-05-16T13:58:46;-18749.00;;;14.79;41.78
28606;BME280;46498;49.968;7.754;2023-05-16T14:03:53;-18738.00;;;14.44;44.16
28606;BME280;46498;49.968;7.754;2023-05-16T14:08:54;-18743.00;;;14.61;41.49
28606;BME280;46498;49.968;7.754;2023-05-16T14:13:56;-18753.00;;;14.92;40.42
28606;BME280;46498;49.968;7.754;2023-05-16T14:18:57;-18745.00;;;14.68;40.29
28606;BME280;46498;49.968;7.754;2023-05-16T14:23:59;-18730.00;;;14.19;40.45
28606;BME280;46498;49.968;7.754;2023-05-16T14:29:00;-18706.00;;;13.44;42.05
28606;BME280;46498;49.968;7.754;2023-05-16T14:34:01;-18717.00;;;13.78;41.45
28606;BME280;46498;49.968;7.754;2023-05-16T14:39:02;-18717.00;;;13.78;41.66
28606;BME280;46498;49.968;7.754;2023-05-16T14:44:03;-18715.00;;;13.74;41.56
28606;BME280;46498;49.968;7.754;2023-05-16T14:49:04;-18725.00;;;14.03;42.23
28606;BME280;46498;49.968;7.754;2023-05-16T14:54:05;-18734.00;;;14.33;40.94
28606;BME280;46498;49.968;7.754;2023-05-16T14:59:07;-18740.00;;;14.52;39.71
28606;BME280;46498;49.968;7.754;2023-05-16T15:04:08;-18735.00;;;14.35;39.10
28606;BME280;46498;49.968;7.754;2023-05-16T15:09:09;-18714.00;;;13.68;42.48
28606;BME280;46498;49.968;7.754;2023-05-16T15:14:11;-18700.00;;;13.25;42.30
28606;BME280;46498;49.968;7.754;2023-05-16T15:19:12;-18703.00;;;13.36;42.34
28606;BME280;46498;49.968;7.754;2023-05-16T15:24:12;-18714.00;;;13.70;41.91
28606;BME280;46498;49.968;7.754;2023-05-16T15:29:14;-18718.00;;;13.81;41.87
28606;BME280;46498;49.968;7.754;2023-05-16T15:34:15;-18730.00;;;14.20;41.75
28606;BME280;46498;49.968;7.754;2023-05-16T15:39:16;-18736.00;;;14.40;42.96
28606;BME280;46498;49.968;7.754;2023-05-16T15:44:17;-18733.00;;;14.28;42.08
28606;BME280;46498;49.968;7.754;2023-05-16T15:49:18;-18721.00;;;13.93;43.74
28606;BME280;46498;49.968;7.754;2023-05-16T15:54:20;-18703.00;;;13.36;43.88
28606;BME280;46498;49.968;7.754;2023-05-16T15:59:21;-18701.00;;;13.29;44.40
28606;BME280;46498;49.968;7.754;2023-05-16T16:04:22;-18702.00;;;13.30;44.91
28606;BME280;46498;49.968;7.754;2023-05-16T16:09:24;-18698.00;;;13.20;46.66
28606;BME280;46498;49.968;7.754;2023-05-16T16:14:25;-18698.00;;;13.20;45.32
28606;BME280;46498;49.968;7.754;2023-05-16T16:19:26;-18703.00;;;13.35;47.41
28606;BME280;46498;49.968;7.754;2023-05-16T16:24:27;-18696.00;;;13.11;46.91
28606;BME280;46498;49.968;7.754;2023-05-16T16:29:28;-18699.00;;;13.22;46.98
28606;BME280;46498;49.968;7.754;2023-05-16T16:34:29;-18702.00;;;13.31;47.47
28606;BME280;46498;49.968;7.754;2023-05-16T16:39:30;-18702.00;;;13.32;47.19
28606;BME280;46498;49.968;7.754;2023-05-16T16:44:33;-18702.00;;;13.30;47.52
28606;BME280;46498;49.968;7.754;2023-05-16T16:49:34;-18702.00;;;13.32;47.63
28606;BME280;46498;49.968;7.754;2023-05-16T16:54:36;-18698.00;;;13.19;48.71
28606;BME280;46498;49.968;7.754;2023-05-16T16:59:37;-18692.00;;;12.99;48.79
28606;BME280;46498;49.968;7.754;2023-05-16T17:04:38;-18694.00;;;13.06;48.53
28606;BME280;46498;49.968;7.754;2023-05-16T17:09:39;-18689.00;;;12.91;48.92
28606;BME280;46498;49.968;7.754;2023-05-16T17:14:42;-18680.00;;;12.61;47.93
28606;BME280;46498;49.968;7.754;2023-05-16T17:19:46;-18676.00;;;12.49;47.58
28606;BME280;46498;49.968;7.754;2023-05-16T17:24:47;-18669.00;;;12.29;48.77
28606;BME280;46498;49.968;7.754;2023-05-16T17:29:51;-18662.00;;;12.07;49.21
28606;BME280;46498;49.968;7.754;2023-05-16T17:34:51;-18661.00;;;12.04;49.10
28606;BME280;46498;49.968;7.754;2023-05-16T17:39:54;-18664.00;;;12.13;48.52
28606;BME280;46498;49.968;7.754;2023-05-16T17:44:55;-18662.00;;;12.05;49.46
28606;BME280;46498;49.968;7.754;2023-05-16T17:49:56;-18655.00;;;11.83;48.92
28606;BME280;46498;49.968;7.754;2023-05-16T17:54:57;-18652.00;;;11.73;49.98
28606;BME280;46498;49.968;7.754;2023-05-16T17:59:58;-18654.00;;;11.81;50.30
28606;BME280;46498;49.968;7.754;2023-05-16T18:04:59;-18643.00;;;11.47;50.22
28606;BME280;46498;49.968;7.754;2023-05-16T18:10:00;-18637.00;;;11.27;51.91
28606;BME280;46498;49.968;7.754;2023-05-16T18:15:03;-18632.00;;;11.12;51.88
28606;BME280;46498;49.968;7.754;2023-05-16T18:20:05;-18629.00;;;11.02;53.18
28606;BME280;46498;49.968;7.754;2023-05-16T18:25:10;-18624.00;;;10.88;53.94
28606;BME280;46498;49.968;7.754;2023-05-16T18:30:12;-18623.00;;;10.83;55.29
28606;BME280;46498;49.968;7.754;2023-05-16T18:35:13;-18615.00;;;10.59;56.37
28606;BME280;46498;49.968;7.754;2023-05-16T18:40:15;-18612.00;;;10.48;58.29
28606;BME280;46498;49.968;7.754;2023-05-16T18:45:17;-18607.00;;;10.35;58.06
28606;BME280;46498;49.968;7.754;2023-05-16T18:50:19;-18605.00;;;10.28;61.02
28606;BME280;46498;49.968;7.754;2023-05-16T18:55:20;-18602.00;;;10.17;60.44
28606;BME280;46498;49.968;7.754;2023-05-16T19:00:21;-18597.00;;;10.01;61.82
28606;BME280;46498;49.968;7.754;2023-05-16T19:05:22;-18595.00;;;9.95;61.22
28606;BME280;46498;49.968;7.754;2023-05-16T19:10:23;-18591.00;;;9.85;62.70
28606;BME280;46498;49.968;7.754;2023-05-16T19:15:24;-18591.00;;;9.83;62.65
28606;BME280;46498;49.968;7.754;2023-05-16T19:20:26;-18586.00;;;9.67;64.11
28606;BME280;46498;49.968;7.754;2023-05-16T19:25:27;-18586.00;;;9.66;65.47
28606;BME280;46498;49.968;7.754;2023-05-16T19:30:28;-18579.00;;;9.47;65.61
28606;BME280;46498;49.968;7.754;2023-05-16T19:35:30;-18574.00;;;9.31;67.06
28606;BME280;46498;49.968;7.754;2023-05-16T19:40:34;-18573.00;;;9.26;69.53
28606;BME280;46498;49.968;7.754;2023-05-16T19:45:35;-18569.00;;;9.15;70.62
28606;BME280;46498;49.968;7.754;2023-05-16T19:50:36;-18569.00;;;9.14;69.30
28606;BME280;46498;49.968;7.754;2023-05-16T19:55:37;-18569.00;;;9.13;71.50
28606;BME280;46498;49.968;7.754;2023-05-16T20:00:38;-18569.00;;;9.13;72.44
28606;BME280;46498;49.968;7.754;2023-05-16T20:05:39;-18566.00;;;9.06;73.03
28606;BME280;46498;49.968;7.754;2023-05-16T20:10:40;-18566.00;;;9.05;72.67
28606;BME280;46498;49.968;7.754;2023-05-16T20:15:41;-18562.00;;;8.94;75.44
28606;BME280;46498;49.968;7.754;2023-05-16T20:20:42;-18567.00;;;9.09;74.20
28606;BME280;46498;49.968;7.754;2023-05-16T20:25:43;-18557.00;;;8.78;77.24
28606;BME280;46498;49.968;7.754;2023-05-16T20:30:44;-18559.00;;;8.84;78.72
28606;BME280;46498;49.968;7.754;2023-05-16T20:35:44;-18558.00;;;8.80;77.10
28606;BME280;46498;49.968;7.754;2023-05-16T20:40:45;-18554.00;;;8.67;77.57
28606;BME280;46498;49.968;7.754;2023-05-16T20:45:47;-18553.00;;;8.65;78.85
28606;BME280;46498;49.968;7.754;2023-05-16T20:50:48;-18555.00;;;8.72;78.51
28606;BME280;46498;49.968;7.754;2023-05-16T20:55:49;-18551.00;;;8.58;78.67
28606;BME280;46498;49.968;7.754;2023-05-16T21:00:49;-18546.00;;;8.42;79.58
28606;BME280;46498;49.968;7.754;2023-05-16T21:05:51;-18544.00;;;8.35;80.66
28606;BME280;46498;49.968;7.754;2023-05-16T21:10:52;-18542.00;;;8.29;81.49
28606;BME280;46498;49.968;7.754;2023-05-16T21:15:53;-18539.00;;;8.20;82.40
28606;BME280;46498;49.968;7.754;2023-05-16T21:20:54;-18533.00;;;8.01;83.85
28606;BME280;46498;49.968;7.754;2023-05-16T21:25:55;-18537.00;;;8.15;86.05
28606;BME280;46498;49.968;7.754;2023-05-16T21:30:55;-18538.00;;;8.16;84.92
28606;BME280;46498;49.968;7.754;2023-05-16T21:35:56;-18531.00;;;7.93;86.44
28606;BME280;46498;49.968;7.754;2023-05-16T21:40:57;-18528.00;;;7.87;87.32
28606;BME280;46498;49.968;7.754;2023-05-16T21:45:58;-18528.00;;;7.85;87.34
28606;BME280;46498;49.968;7.754;2023-05-16T21:50:59;-18526.00;;;7.78;89.18
28606;BME280;46498;49.968;7.754;2023-05-16T21:56:00;-18526.00;;;7.81;90.09
28606;BME280;46498;49.968;7.754;2023-05-16T22:01:01;-18523.00;;;7.71;90.73
28606;BME280;46498;49.968;7.754;2023-05-16T22:06:04;-18521.00;;;7.62;91.21
28606;BME280;46498;49.968;7.754;2023-05-16T22:11:05;-18519.00;;;7.58;91.83
28606;BME280;46498;49.968;7.754;2023-05-16T22:16:06;-18520.00;;;7.60;92.38
28606;BME280;46498;49.968;7.754;2023-05-16T22:21:07;-18520.00;;;7.61;92.78
28606;BME280;46498;49.968;7.754;2023-05-16T22:26:08;-18520.00;;;7.60;92.71
28606;BME280;46498;49.968;7.754;2023-05-16T22:31:09;-18520.00;;;7.62;93.37
28606;BME280;46498;49.968;7.754;2023-05-16T22:36:10;-18523.00;;;7.69;93.96
28606;BME280;46498;49.968;7.754;2023-05-16T22:41:11;-18520.00;;;7.61;94.09
28606;BME280;46498;49.968;7.754;2023-05-16T22:46:12;-18522.00;;;7.68;94.51
28606;BME280;46498;49.968;7.754;2023-05-16T22:51:13;-18523.00;;;7.70;94.28
28606;BME280;46498;49.968;7.754;2023-05-16T22:56:14;-18524.00;;;7.73;94.64
28606;BME280;46498;49.968;7.754;2023-05-16T23:01:15;-18521.00;;;7.62;96.22
28606;BME280;46498;49.968;7.754;2023-05-16T23:06:16;-18526.00;;;7.79;95.09
28606;BME280;46498;49.968;7.754;2023-05-16T23:11:16;-18520.00;;;7.62;97.47
28606;BME280;46498;49.968;7.754;2023-05-16T23:16:19;-18523.00;;;7.70;97.74
28606;BME280;46498;49.968;7.754;2023-05-16T23:21:20;-18529.00;;;7.89;95.28
28606;BME280;46498;49.968;7.754;2023-05-16T23:26:20;-18527.00;;;7.83;96.67
28606;BME280;46498;49.968;7.754;2023-05-16T23:31:21;-18527.00;;;7.82;96.28
28606;BME280;46498;49.968;7.754;2023-05-16T23:36:22;-18522.00;;;7.66;97.73
28606;BME280;46498;49.968;7.754;2023-05-16T23:41:23;-18515.00;;;7.46;98.23
28606;BME280;46498;49.968;7.754;2023-05-16T23:46:24;-18516.00;;;7.48;97.87
28606;BME280;46498;49.968;7.754;2023-05-16T23:51:25;-18520.00;;;7.60;97.75
28606;BME280;46498;49.968;7.754;2023-05-16T23:56:26;-18513.00;;;7.37;98.75
